Alburg, Vermont
Current Conditions -  °F | °C
As of 7:55 AM on Tuesday 21 Oct 2014 (Local Time) from KFSO Reporting Station
Moderate Rain Moderate Rain  
Wind Chill: 43°   Ceiling: 5000
Heat Index: 43°   Visibility: 10mi
Dew Point: 41°   Wind: 3mph
Humidity: 92%   Direction: 100°E
Pressure: 29.96"   Gusts: NA
Location:  44.9685°N, 73.281°W
Report Text: KFSO 211155Z AUTO 10003KT 10SM RA OVC050 06/05 A2996 RMK AO2 T00620050 10071 20060
Loading
Personal Weather Stations






























Interactive Weather Map
Tropical Storm Tracking
New forecast layout! Learn more

10-Day Weather Forecast

Advertisements
Track Severe Weather on mobile